sensor_id;sensor_type;location;lat;lon;timestamp;pressure;altitude;pressure_sealevel;temperature;humidity
40574;BME280;26283;49.020;8.644;2022-11-15T00:01:45;99026.19;;;12.33;62.36
40574;BME280;26283;49.020;8.644;2022-11-15T00:04:11;99017.50;;;12.31;62.37
40574;BME280;26283;49.020;8.644;2022-11-15T00:06:36;99009.41;;;12.31;62.38
40574;BME280;26283;49.020;8.644;2022-11-15T00:09:02;99016.66;;;12.31;62.39
40574;BME280;26283;49.020;8.644;2022-11-15T00:11:28;99013.75;;;12.32;62.38
40574;BME280;26283;49.020;8.644;2022-11-15T00:13:57;99012.91;;;12.32;62.37
40574;BME280;26283;49.020;8.644;2022-11-15T00:16:23;99009.41;;;12.31;62.40
40574;BME280;26283;49.020;8.644;2022-11-15T00:18:49;99010.22;;;12.32;62.39
40574;BME280;26283;49.020;8.644;2022-11-15T00:21:15;99003.16;;;12.31;62.39
40574;BME280;26283;49.020;8.644;2022-11-15T00:23:41;99005.63;;;12.32;62.39
40574;BME280;26283;49.020;8.644;2022-11-15T00:26:11;98998.59;;;12.31;62.41
40574;BME280;26283;49.020;8.644;2022-11-15T00:28:37;98995.06;;;12.31;62.44
40574;BME280;26283;49.020;8.644;2022-11-15T00:31:04;99006.69;;;12.31;62.42
40574;BME280;26283;49.020;8.644;2022-11-15T00:33:30;99002.94;;;12.32;62.42
40574;BME280;26283;49.020;8.644;2022-11-15T00:36:02;98995.06;;;12.31;62.42
40574;BME280;26283;49.020;8.644;2022-11-15T00:38:33;98995.06;;;12.31;62.44
40574;BME280;26283;49.020;8.644;2022-11-15T00:40:59;98987.78;;;12.31;62.43
40574;BME280;26283;49.020;8.644;2022-11-15T00:43:24;98991.31;;;12.32;62.41
40574;BME280;26283;49.020;8.644;2022-11-15T00:45:50;98985.06;;;12.31;62.41
40574;BME280;26283;49.020;8.644;2022-11-15T00:48:15;98988.59;;;12.32;62.41
40574;BME280;26283;49.020;8.644;2022-11-15T00:50:41;98985.06;;;12.31;62.41
40574;BME280;26283;49.020;8.644;2022-11-15T00:53:06;98982.38;;;12.31;62.43
40574;BME280;26283;49.020;8.644;2022-11-15T00:55:31;98982.38;;;12.31;62.43
40574;BME280;26283;49.020;8.644;2022-11-15T00:57:57;98980.50;;;12.32;62.44
40574;BME280;26283;49.020;8.644;2022-11-15T01:00:22;98979.66;;;12.31;62.44
40574;BME280;26283;49.020;8.644;2022-11-15T01:02:48;98984.25;;;12.31;62.44
40574;BME280;26283;49.020;8.644;2022-11-15T01:05:13;98975.31;;;12.30;62.43
40574;BME280;26283;49.020;8.644;2022-11-15T01:07:39;98978.03;;;12.30;62.44
40574;BME280;26283;49.020;8.644;2022-11-15T01:10:04;98969.91;;;12.30;62.45
40574;BME280;26283;49.020;8.644;2022-11-15T01:12:30;98975.31;;;12.30;62.44
40574;BME280;26283;49.020;8.644;2022-11-15T01:14:55;98969.91;;;12.30;62.43
40574;BME280;26283;49.020;8.644;2022-11-15T01:17:20;98974.25;;;12.31;62.43
40574;BME280;26283;49.020;8.644;2022-11-15T01:19:46;98961.00;;;12.30;62.44
40574;BME280;26283;49.020;8.644;2022-11-15T01:22:11;98955.59;;;12.30;62.45
40574;BME280;26283;49.020;8.644;2022-11-15T01:24:37;98952.06;;;12.29;62.46
40574;BME280;26283;49.020;8.644;2022-11-15T01:27:02;98962.06;;;12.29;62.46
40574;BME280;26283;49.020;8.644;2022-11-15T01:29:28;98958.28;;;12.30;62.46
40574;BME280;26283;49.020;8.644;2022-11-15T01:31:53;98959.13;;;12.30;62.48
40574;BME280;26283;49.020;8.644;2022-11-15T01:34:19;98953.94;;;12.29;62.48
40574;BME280;26283;49.020;8.644;2022-11-15T01:36:44;98954.75;;;12.29;62.47
40574;BME280;26283;49.020;8.644;2022-11-15T01:39:10;98944.78;;;12.30;62.48
40574;BME280;26283;49.020;8.644;2022-11-15T01:41:35;98946.66;;;12.29;62.48
40574;BME280;26283;49.020;8.644;2022-11-15T01:44:31;98949.37;;;12.29;62.47
40574;BME280;26283;49.020;8.644;2022-11-15T01:47:16;98947.47;;;12.30;62.51
40574;BME280;26283;49.020;8.644;2022-11-15T01:52:24;98947.72;;;12.28;62.51
40574;BME280;26283;49.020;8.644;2022-11-15T01:55:06;98945.03;;;12.28;62.50
40574;BME280;26283;49.020;8.644;2022-11-15T01:57:33;98943.38;;;12.27;62.53
40574;BME280;26283;49.020;8.644;2022-11-15T02:00:00;98932.56;;;12.27;62.52
40574;BME280;26283;49.020;8.644;2022-11-15T02:02:26;98927.16;;;12.27;62.55
40574;BME280;26283;49.020;8.644;2022-11-15T02:04:52;98932.56;;;12.27;62.57
40574;BME280;26283;49.020;8.644;2022-11-15T02:07:19;98935.25;;;12.27;62.56
40574;BME280;26283;49.020;8.644;2022-11-15T02:09:46;98931.75;;;12.27;62.56
40574;BME280;26283;49.020;8.644;2022-11-15T02:12:15;98929.88;;;12.27;62.55
40574;BME280;26283;49.020;8.644;2022-11-15T02:14:46;98937.97;;;12.27;62.56
40574;BME280;26283;49.020;8.644;2022-11-15T02:17:37;98927.97;;;12.28;62.55
40574;BME280;26283;49.020;8.644;2022-11-15T02:20:33;98924.47;;;12.27;62.59
40574;BME280;26283;49.020;8.644;2022-11-15T02:26:51;98910.37;;;12.25;62.58
40574;BME280;26283;49.020;8.644;2022-11-15T02:32:10;98912.47;;;12.23;62.56
40574;BME280;26283;49.020;8.644;2022-11-15T02:37:23;98906.03;;;12.24;62.60
40574;BME280;26283;49.020;8.644;2022-11-15T02:42:45;98893.56;;;12.23;62.66
40574;BME280;26283;49.020;8.644;2022-11-15T02:45:37;98882.75;;;12.23;62.69
40574;BME280;26283;49.020;8.644;2022-11-15T02:48:06;98870.06;;;12.24;62.64
40574;BME280;26283;49.020;8.644;2022-11-15T02:50:33;98864.91;;;12.22;62.66
40574;BME280;26283;49.020;8.644;2022-11-15T02:52:58;98865.72;;;12.23;62.68
40574;BME280;26283;49.020;8.644;2022-11-15T02:55:35;98864.91;;;12.22;62.68
40574;BME280;26283;49.020;8.644;2022-11-15T02:58:23;98871.13;;;12.23;62.70
40574;BME280;26283;49.020;8.644;2022-11-15T03:04:10;98863.25;;;12.21;62.68
40574;BME280;26283;49.020;8.644;2022-11-15T03:06:53;98874.91;;;12.22;62.66
40574;BME280;26283;49.020;8.644;2022-11-15T03:11:55;98876.53;;;12.23;62.70
40574;BME280;26283;49.020;8.644;2022-11-15T03:14:27;98881.13;;;12.22;62.71
40574;BME280;26283;49.020;8.644;2022-11-15T03:19:40;98857.87;;;12.21;62.69
40574;BME280;26283;49.020;8.644;2022-11-15T03:22:12;98862.22;;;12.22;62.68
40574;BME280;26283;49.020;8.644;2022-11-15T03:24:40;98865.72;;;12.23;62.71
40574;BME280;26283;49.020;8.644;2022-11-15T03:27:10;98848.13;;;12.20;62.70
40574;BME280;26283;49.020;8.644;2022-11-15T03:29:41;98855.16;;;12.21;62.70
40574;BME280;26283;49.020;8.644;2022-11-15T03:32:34;98862.44;;;12.21;62.73
40574;BME280;26283;49.020;8.644;2022-11-15T03:35:05;98858.69;;;12.22;62.76
40574;BME280;26283;49.020;8.644;2022-11-15T03:40:45;98850.59;;;12.22;62.75
40574;BME280;26283;49.020;8.644;2022-11-15T03:46:01;98845.41;;;12.20;62.75
40574;BME280;26283;49.020;8.644;2022-11-15T03:48:33;98850.81;;;12.20;62.75
40574;BME280;26283;49.020;8.644;2022-11-15T03:51:01;98848.94;;;12.21;62.76
40574;BME280;26283;49.020;8.644;2022-11-15T03:53:28;98841.06;;;12.19;62.77
40574;BME280;26283;49.020;8.644;2022-11-15T03:55:53;98849.19;;;12.19;62.78
40574;BME280;26283;49.020;8.644;2022-11-15T03:58:19;98840.00;;;12.20;62.78
40574;BME280;26283;49.020;8.644;2022-11-15T04:00:44;98840.00;;;12.20;62.78
40574;BME280;26283;49.020;8.644;2022-11-15T04:03:09;98833.78;;;12.20;62.79
40574;BME280;26283;49.020;8.644;2022-11-15T04:05:35;98839.19;;;12.20;62.78
40574;BME280;26283;49.020;8.644;2022-11-15T04:08:00;98834.63;;;12.20;62.78
40574;BME280;26283;49.020;8.644;2022-11-15T04:10:25;98834.63;;;12.20;62.77
40574;BME280;26283;49.020;8.644;2022-11-15T04:12:51;98839.19;;;12.20;62.77
40574;BME280;26283;49.020;8.644;2022-11-15T04:15:19;98836.50;;;12.20;62.77
40574;BME280;26283;49.020;8.644;2022-11-15T04:17:47;98842.72;;;12.20;62.77
40574;BME280;26283;49.020;8.644;2022-11-15T04:20:24;98835.44;;;12.21;62.77
40574;BME280;26283;49.020;8.644;2022-11-15T04:23:24;98837.31;;;12.20;62.78
40574;BME280;26283;49.020;8.644;2022-11-15T04:26:14;98837.31;;;12.20;62.77
40574;BME280;26283;49.020;8.644;2022-11-15T04:28:41;98838.38;;;12.19;62.76
40574;BME280;26283;49.020;8.644;2022-11-15T04:31:25;98840.00;;;12.20;62.78
40574;BME280;26283;49.020;8.644;2022-11-15T04:33:51;98837.78;;;12.17;62.79
40574;BME280;26283;49.020;8.644;2022-11-15T04:36:16;98836.97;;;12.17;62.82
40574;BME280;26283;49.020;8.644;2022-11-15T04:39:00;98825.91;;;12.18;62.83
40574;BME280;26283;49.020;8.644;2022-11-15T04:41:26;98818.66;;;12.19;62.84
40574;BME280;26283;49.020;8.644;2022-11-15T04:43:51;98821.59;;;12.17;62.85
40574;BME280;26283;49.020;8.644;2022-11-15T04:46:17;98815.12;;;12.18;62.86
40574;BME280;26283;49.020;8.644;2022-11-15T04:48:42;98814.28;;;12.18;62.86
40574;BME280;26283;49.020;8.644;2022-11-15T04:51:08;98820.53;;;12.18;62.88
40574;BME280;26283;49.020;8.644;2022-11-15T04:53:33;98819.69;;;12.18;62.87
40574;BME280;26283;49.020;8.644;2022-11-15T04:55:59;98819.69;;;12.18;62.87
40574;BME280;26283;49.020;8.644;2022-11-15T04:58:24;98812.41;;;12.18;62.87
40574;BME280;26283;49.020;8.644;2022-11-15T05:00:49;98808.06;;;12.17;62.88
40574;BME280;26283;49.020;8.644;2022-11-15T05:03:15;98798.09;;;12.18;62.87
40574;BME280;26283;49.020;8.644;2022-11-15T05:05:59;98808.06;;;12.17;62.87
40574;BME280;26283;49.020;8.644;2022-11-15T05:08:25;98813.47;;;12.17;62.85
40574;BME280;26283;49.020;8.644;2022-11-15T05:10:50;98802.66;;;12.17;62.86
40574;BME280;26283;49.020;8.644;2022-11-15T05:13:16;98802.66;;;12.17;62.87
40574;BME280;26283;49.020;8.644;2022-11-15T05:15:41;98799.97;;;12.17;62.88
40574;BME280;26283;49.020;8.644;2022-11-15T05:18:07;98804.31;;;12.18;62.88
40574;BME280;26283;49.020;8.644;2022-11-15T05:20:32;98803.50;;;12.18;62.89
40574;BME280;26283;49.020;8.644;2022-11-15T05:22:58;98803.72;;;12.16;62.88
40574;BME280;26283;49.020;8.644;2022-11-15T05:25:23;98812.66;;;12.17;62.88
40574;BME280;26283;49.020;8.644;2022-11-15T05:27:48;98806.19;;;12.18;62.88
40574;BME280;26283;49.020;8.644;2022-11-15T05:30:15;98801.62;;;12.18;62.87
40574;BME280;26283;49.020;8.644;2022-11-15T05:32:40;98815.12;;;12.18;62.89
40574;BME280;26283;49.020;8.644;2022-11-15T05:35:07;98803.50;;;12.18;62.88
40574;BME280;26283;49.020;8.644;2022-11-15T05:37:35;98803.72;;;12.16;62.89
40574;BME280;26283;49.020;8.644;2022-11-15T05:40:00;98790.81;;;12.18;62.89
40574;BME280;26283;49.020;8.644;2022-11-15T05:42:26;98798.91;;;12.18;62.89
40574;BME280;26283;49.020;8.644;2022-11-15T05:44:52;98806.19;;;12.18;62.89
40574;BME280;26283;49.020;8.644;2022-11-15T05:47:24;98787.28;;;12.18;62.87
40574;BME280;26283;49.020;8.644;2022-11-15T05:49:52;98795.38;;;12.18;62.88
40574;BME280;26283;49.020;8.644;2022-11-15T05:52:22;98786.47;;;12.17;62.87
40574;BME280;26283;49.020;8.644;2022-11-15T05:54:50;98797.28;;;12.17;62.90
40574;BME280;26283;49.020;8.644;2022-11-15T05:57:16;98793.50;;;12.18;62.90
40574;BME280;26283;49.020;8.644;2022-11-15T05:59:42;98795.38;;;12.18;62.90
40574;BME280;26283;49.020;8.644;2022-11-15T06:02:09;98801.62;;;12.18;62.90
40574;BME280;26283;49.020;8.644;2022-11-15T06:04:34;98806.19;;;12.18;62.89
40574;BME280;26283;49.020;8.644;2022-11-15T06:07:00;98815.12;;;12.18;62.89
40574;BME280;26283;49.020;8.644;2022-11-15T06:09:25;98811.59;;;12.18;62.89
40574;BME280;26283;49.020;8.644;2022-11-15T06:11:50;98803.50;;;12.18;62.89
40574;BME280;26283;49.020;8.644;2022-11-15T06:14:16;98809.72;;;12.18;62.88
40574;BME280;26283;49.020;8.644;2022-11-15T06:16:41;98798.91;;;12.18;62.89
40574;BME280;26283;49.020;8.644;2022-11-15T06:19:07;98788.09;;;12.18;62.89
40574;BME280;26283;49.020;8.644;2022-11-15T06:21:34;98794.56;;;12.17;62.89
40574;BME280;26283;49.020;8.644;2022-11-15T06:23:59;98796.22;;;12.18;62.89
40574;BME280;26283;49.020;8.644;2022-11-15T06:26:25;98792.69;;;12.18;62.88
40574;BME280;26283;49.020;8.644;2022-11-15T06:28:50;98798.91;;;12.18;62.89
40574;BME280;26283;49.020;8.644;2022-11-15T06:31:15;98798.09;;;12.18;62.88
40574;BME280;26283;49.020;8.644;2022-11-15T06:33:41;98786.47;;;12.17;62.89
40574;BME280;26283;49.020;8.644;2022-11-15T06:36:12;98798.91;;;12.18;62.89
40574;BME280;26283;49.020;8.644;2022-11-15T06:38:42;98789.16;;;12.17;62.90
40574;BME280;26283;49.020;8.644;2022-11-15T06:41:09;98801.03;;;12.16;62.90
40574;BME280;26283;49.020;8.644;2022-11-15T06:43:35;98801.84;;;12.17;62.91
40574;BME280;26283;49.020;8.644;2022-11-15T06:46:02;98808.91;;;12.18;62.91
40574;BME280;26283;49.020;8.644;2022-11-15T06:48:29;98807.00;;;12.18;62.91
40574;BME280;26283;49.020;8.644;2022-11-15T06:50:56;98803.50;;;12.18;62.90
40574;BME280;26283;49.020;8.644;2022-11-15T06:53:22;98808.91;;;12.18;62.91
40574;BME280;26283;49.020;8.644;2022-11-15T06:55:48;98802.66;;;12.17;62.91
40574;BME280;26283;49.020;8.644;2022-11-15T06:58:14;98800.78;;;12.18;62.91
40574;BME280;26283;49.020;8.644;2022-11-15T07:00:39;98806.19;;;12.18;62.92
40574;BME280;26283;49.020;8.644;2022-11-15T07:03:05;98800.78;;;12.18;62.92
40574;BME280;26283;49.020;8.644;2022-11-15T07:05:30;98815.12;;;12.18;62.91
40574;BME280;26283;49.020;8.644;2022-11-15T07:07:57;98822.41;;;12.18;62.90
40574;BME280;26283;49.020;8.644;2022-11-15T07:10:23;98815.12;;;12.18;62.89
40574;BME280;26283;49.020;8.644;2022-11-15T07:12:54;98813.47;;;12.17;62.90
40574;BME280;26283;49.020;8.644;2022-11-15T07:15:21;98817.00;;;12.18;62.91
40574;BME280;26283;49.020;8.644;2022-11-15T07:17:47;98813.47;;;12.17;62.91
40574;BME280;26283;49.020;8.644;2022-11-15T07:20:13;98824.28;;;12.17;62.92
40574;BME280;26283;49.020;8.644;2022-11-15T07:22:40;98825.09;;;12.18;62.93
40574;BME280;26283;49.020;8.644;2022-11-15T07:25:05;98826.16;;;12.17;62.92
40574;BME280;26283;49.020;8.644;2022-11-15T07:27:31;98822.63;;;12.16;62.91
40574;BME280;26283;49.020;8.644;2022-11-15T07:29:56;98825.91;;;12.18;62.92
40574;BME280;26283;49.020;8.644;2022-11-15T07:32:22;98818.88;;;12.17;62.91
40574;BME280;26283;49.020;8.644;2022-11-15T07:34:47;98811.84;;;12.16;62.92
40574;BME280;26283;49.020;8.644;2022-11-15T07:37:12;98815.34;;;12.17;62.93
40574;BME280;26283;49.020;8.644;2022-11-15T07:39:38;98811.84;;;12.16;62.93
40574;BME280;26283;49.020;8.644;2022-11-15T07:42:03;98811.84;;;12.16;62.94
40574;BME280;26283;49.020;8.644;2022-11-15T07:44:47;98809.12;;;12.16;62.95
40574;BME280;26283;49.020;8.644;2022-11-15T07:47:13;98811.84;;;12.16;62.93
40574;BME280;26283;49.020;8.644;2022-11-15T07:49:38;98808.06;;;12.17;62.94
40574;BME280;26283;49.020;8.644;2022-11-15T07:52:04;98801.84;;;12.17;62.94
40574;BME280;26283;49.020;8.644;2022-11-15T07:54:29;98804.78;;;12.15;62.95
40574;BME280;26283;49.020;8.644;2022-11-15T07:56:54;98803.72;;;12.16;62.95
40574;BME280;26283;49.020;8.644;2022-11-15T07:59:20;98806.44;;;12.16;62.95
40574;BME280;26283;49.020;8.644;2022-11-15T08:01:45;98810.19;;;12.15;62.95
40574;BME280;26283;49.020;8.644;2022-11-15T08:04:11;98803.72;;;12.16;62.96
40574;BME280;26283;49.020;8.644;2022-11-15T08:06:36;98803.72;;;12.16;62.96
40574;BME280;26283;49.020;8.644;2022-11-15T08:09:02;98806.44;;;12.16;62.97
40574;BME280;26283;49.020;8.644;2022-11-15T08:11:27;98807.50;;;12.15;62.97
40574;BME280;26283;49.020;8.644;2022-11-15T08:13:53;98811.84;;;12.16;62.97
40574;BME280;26283;49.020;8.644;2022-11-15T08:16:18;98805.59;;;12.16;62.97
40574;BME280;26283;49.020;8.644;2022-11-15T08:18:44;98818.88;;;12.17;62.97
40574;BME280;26283;49.020;8.644;2022-11-15T08:21:09;98811.84;;;12.16;62.97
40574;BME280;26283;49.020;8.644;2022-11-15T08:23:36;98811.84;;;12.16;62.97
40574;BME280;26283;49.020;8.644;2022-11-15T08:26:02;98811.84;;;12.16;62.97
40574;BME280;26283;49.020;8.644;2022-11-15T08:28:29;98795.88;;;12.15;62.98
40574;BME280;26283;49.020;8.644;2022-11-15T08:30:54;98806.44;;;12.16;62.97
40574;BME280;26283;49.020;8.644;2022-11-15T08:33:20;98799.38;;;12.15;63.00
40574;BME280;26283;49.020;8.644;2022-11-15T08:35:45;98793.97;;;12.15;63.00
40574;BME280;26283;49.020;8.644;2022-11-15T08:38:11;98790.22;;;12.16;62.98
40574;BME280;26283;49.020;8.644;2022-11-15T08:40:37;98782.13;;;12.16;62.98
40574;BME280;26283;49.020;8.644;2022-11-15T08:43:03;98786.47;;;12.17;62.98
40574;BME280;26283;49.020;8.644;2022-11-15T08:45:29;98784.81;;;12.16;62.98
40574;BME280;26283;49.020;8.644;2022-11-15T08:47:55;98784.00;;;12.16;62.99
40574;BME280;26283;49.020;8.644;2022-11-15T08:50:21;98787.53;;;12.16;62.98
40574;BME280;26283;49.020;8.644;2022-11-15T08:52:46;98785.66;;;12.17;62.98
40574;BME280;26283;49.020;8.644;2022-11-15T08:55:13;98773.19;;;12.16;63.00
40574;BME280;26283;49.020;8.644;2022-11-15T08:57:39;98766.75;;;12.17;62.99
40574;BME280;26283;49.020;8.644;2022-11-15T09:00:05;98776.72;;;12.16;63.00
40574;BME280;26283;49.020;8.644;2022-11-15T09:02:30;98774.03;;;12.16;62.99
40574;BME280;26283;49.020;8.644;2022-11-15T09:04:56;98772.13;;;12.17;62.98
40574;BME280;26283;49.020;8.644;2022-11-15T09:07:21;98774.84;;;12.17;62.99
40574;BME280;26283;49.020;8.644;2022-11-15T09:09:46;98767.78;;;12.16;62.98
40574;BME280;26283;49.020;8.644;2022-11-15T09:12:12;98765.09;;;12.16;63.00
40574;BME280;26283;49.020;8.644;2022-11-15T09:14:37;98762.16;;;12.17;62.99
40574;BME280;26283;49.020;8.644;2022-11-15T09:17:03;98766.75;;;12.17;62.99
40574;BME280;26283;49.020;8.644;2022-11-15T09:19:29;98768.63;;;12.16;62.99
40574;BME280;26283;49.020;8.644;2022-11-15T09:21:54;98765.91;;;12.16;63.00
40574;BME280;26283;49.020;8.644;2022-11-15T09:24:20;98755.94;;;12.17;63.00
40574;BME280;26283;49.020;8.644;2022-11-15T09:26:46;98756.75;;;12.17;63.00
40574;BME280;26283;49.020;8.644;2022-11-15T09:29:11;98761.09;;;12.18;62.99
40574;BME280;26283;49.020;8.644;2022-11-15T09:31:37;98754.06;;;12.17;62.99
40574;BME280;26283;49.020;8.644;2022-11-15T09:34:02;98756.75;;;12.17;62.98
40574;BME280;26283;49.020;8.644;2022-11-15T09:36:27;98754.62;;;12.19;62.96
40574;BME280;26283;49.020;8.644;2022-11-15T09:38:53;98746.78;;;12.18;62.97
40574;BME280;26283;49.020;8.644;2022-11-15T09:49:21;98753.00;;;12.18;62.97
40574;BME280;26283;49.020;8.644;2022-11-15T09:52:02;98745.72;;;12.19;62.92
40574;BME280;26283;49.020;8.644;2022-11-15T10:03:41;98747.59;;;12.18;62.99
40574;BME280;26283;49.020;8.644;2022-11-15T10:06:30;98744.66;;;12.20;62.96
40574;BME280;26283;49.020;8.644;2022-11-15T10:12:35;98730.22;;;12.14;63.00
40574;BME280;26283;49.020;8.644;2022-11-15T10:15:44;98736.78;;;12.18;62.96
40574;BME280;26283;49.020;8.644;2022-11-15T10:24:50;98733.03;;;12.19;62.98
40574;BME280;26283;49.020;8.644;2022-11-15T10:27:26;98734.66;;;12.20;63.00
40574;BME280;26283;49.020;8.644;2022-11-15T10:29:52;98733.03;;;12.19;63.01
40574;BME280;26283;49.020;8.644;2022-11-15T10:38:54;98712.72;;;12.17;63.01
40574;BME280;26283;49.020;8.644;2022-11-15T10:49:29;98712.00;;;12.21;62.97
40574;BME280;26283;49.020;8.644;2022-11-15T10:52:01;98707.41;;;12.22;62.99
40574;BME280;26283;49.020;8.644;2022-11-15T10:54:36;98710.94;;;12.22;62.99
40574;BME280;26283;49.020;8.644;2022-11-15T10:57:10;98700.13;;;12.22;62.98
40574;BME280;26283;49.020;8.644;2022-11-15T10:59:37;98702.81;;;12.22;62.97
40574;BME280;26283;49.020;8.644;2022-11-15T11:02:34;98699.06;;;12.23;62.96
40574;BME280;26283;49.020;8.644;2022-11-15T11:05:02;98710.22;;;12.27;62.96
40574;BME280;26283;49.020;8.644;2022-11-15T11:07:32;98698.59;;;12.26;62.89
40574;BME280;26283;49.020;8.644;2022-11-15T11:10:21;98700.22;;;12.27;62.91
40574;BME280;26283;49.020;8.644;2022-11-15T11:12:46;98701.03;;;12.28;62.90
40574;BME280;26283;49.020;8.644;2022-11-15T11:15:14;98685.66;;;12.28;62.88
40574;BME280;26283;49.020;8.644;2022-11-15T11:17:56;98675.91;;;12.27;62.91
40574;BME280;26283;49.020;8.644;2022-11-15T11:20:29;98672.97;;;12.29;62.92
40574;BME280;26283;49.020;8.644;2022-11-15T11:26:01;98659.47;;;12.29;62.90
40574;BME280;26283;49.020;8.644;2022-11-15T11:28:48;98656.50;;;12.30;62.89
40574;BME280;26283;49.020;8.644;2022-11-15T11:37:36;98644.06;;;12.29;62.88
40574;BME280;26283;49.020;8.644;2022-11-15T11:40:20;98643.25;;;12.29;62.95
40574;BME280;26283;49.020;8.644;2022-11-15T11:45:47;98641.38;;;12.29;62.96
40574;BME280;26283;49.020;8.644;2022-11-15T11:48:46;98638.66;;;12.29;62.94
40574;BME280;26283;49.020;8.644;2022-11-15T11:51:28;98633.25;;;12.29;62.96
40574;BME280;26283;49.020;8.644;2022-11-15T11:54:05;98623.28;;;12.30;62.95
40574;BME280;26283;49.020;8.644;2022-11-15T11:56:34;98622.47;;;12.29;62.96
40574;BME280;26283;49.020;8.644;2022-11-15T11:59:27;98614.13;;;12.31;62.96
40574;BME280;26283;49.020;8.644;2022-11-15T12:01:55;98616.00;;;12.30;62.98
40574;BME280;26283;49.020;8.644;2022-11-15T12:04:29;98602.47;;;12.30;62.93
40574;BME280;26283;49.020;8.644;2022-11-15T12:07:02;98603.31;;;12.31;62.95
40574;BME280;26283;49.020;8.644;2022-11-15T12:12:23;98606.59;;;12.33;62.91
40574;BME280;26283;49.020;8.644;2022-11-15T12:14:53;98600.13;;;12.34;62.90
40574;BME280;26283;49.020;8.644;2022-11-15T12:17:23;98589.31;;;12.34;62.88
40574;BME280;26283;49.020;8.644;2022-11-15T12:19:49;98591.19;;;12.33;62.89
40574;BME280;26283;49.020;8.644;2022-11-15T12:25:00;98582.00;;;12.34;62.89
40574;BME280;26283;49.020;8.644;2022-11-15T12:27:40;98577.41;;;12.35;62.86
40574;BME280;26283;49.020;8.644;2022-11-15T12:30:15;98562.00;;;12.35;62.87
40574;BME280;26283;49.020;8.644;2022-11-15T12:32:57;98570.94;;;12.36;62.85
40574;BME280;26283;49.020;8.644;2022-11-15T12:35:42;98576.09;;;12.37;62.85
40574;BME280;26283;49.020;8.644;2022-11-15T12:38:12;98571.75;;;12.36;62.84
40574;BME280;26283;49.020;8.644;2022-11-15T12:41:12;98561.53;;;12.39;62.82
40574;BME280;26283;49.020;8.644;2022-11-15T12:43:43;98554.25;;;12.39;62.81
40574;BME280;26283;49.020;8.644;2022-11-15T12:49:08;98546.94;;;12.40;62.81
40574;BME280;26283;49.020;8.644;2022-11-15T13:02:25;98528.63;;;12.42;62.80
40574;BME280;26283;49.020;8.644;2022-11-15T13:04:53;98528.63;;;12.42;62.77
40574;BME280;26283;49.020;8.644;2022-11-15T13:07:55;98522.13;;;12.43;62.77
40574;BME280;26283;49.020;8.644;2022-11-15T13:12:54;98510.28;;;12.44;62.74
40574;BME280;26283;49.020;8.644;2022-11-15T13:15:46;98501.09;;;12.45;62.74
40574;BME280;26283;49.020;8.644;2022-11-15T13:18:36;98494.63;;;12.46;62.76
40574;BME280;26283;49.020;8.644;2022-11-15T13:21:05;98488.97;;;12.47;62.66
40574;BME280;26283;49.020;8.644;2022-11-15T13:23:53;98484.37;;;12.48;62.61
40574;BME280;26283;49.020;8.644;2022-11-15T13:26:18;98477.91;;;12.49;62.59
40574;BME280;26283;49.020;8.644;2022-11-15T13:28:47;98470.63;;;12.49;62.58
40574;BME280;26283;49.020;8.644;2022-11-15T13:31:36;98470.38;;;12.51;62.56
40574;BME280;26283;49.020;8.644;2022-11-15T13:36:49;98459.06;;;12.54;62.45
40574;BME280;26283;49.020;8.644;2022-11-15T13:39:27;98458.84;;;12.55;62.40
40574;BME280;26283;49.020;8.644;2022-11-15T13:41:53;98448.81;;;12.56;62.40
40574;BME280;26283;49.020;8.644;2022-11-15T13:44:32;98445.03;;;12.57;62.36
40574;BME280;26283;49.020;8.644;2022-11-15T13:49:32;98436.94;;;12.57;62.34
40574;BME280;26283;49.020;8.644;2022-11-15T13:52:00;98435.88;;;12.58;62.33
40574;BME280;26283;49.020;8.644;2022-11-15T13:54:38;98440.44;;;12.57;62.34
40574;BME280;26283;49.020;8.644;2022-11-15T13:57:24;98428.56;;;12.58;62.35
40574;BME280;26283;49.020;8.644;2022-11-15T14:02:31;98429.38;;;12.59;62.30
40574;BME280;26283;49.020;8.644;2022-11-15T14:05:18;98427.50;;;12.59;62.30
40574;BME280;26283;49.020;8.644;2022-11-15T14:08:20;98422.91;;;12.60;62.32
40574;BME280;26283;49.020;8.644;2022-11-15T14:10:47;98416.69;;;12.59;62.30
40574;BME280;26283;49.020;8.644;2022-11-15T14:13:30;98417.25;;;12.61;62.29
40574;BME280;26283;49.020;8.644;2022-11-15T14:16:18;98404.00;;;12.60;62.34
40574;BME280;26283;49.020;8.644;2022-11-15T14:18:46;98406.69;;;12.60;62.34
40574;BME280;26283;49.020;8.644;2022-11-15T14:21:11;98394.56;;;12.62;62.32
40574;BME280;26283;49.020;8.644;2022-11-15T14:23:37;98396.47;;;12.62;62.33
40574;BME280;26283;49.020;8.644;2022-11-15T14:26:03;98387.28;;;12.63;62.34
40574;BME280;26283;49.020;8.644;2022-11-15T14:28:31;98387.03;;;12.64;62.30
40574;BME280;26283;49.020;8.644;2022-11-15T14:30:59;98385.41;;;12.63;62.29
40574;BME280;26283;49.020;8.644;2022-11-15T14:33:35;98381.62;;;12.64;62.28
40574;BME280;26283;49.020;8.644;2022-11-15T14:36:12;98374.34;;;12.65;62.28
40574;BME280;26283;49.020;8.644;2022-11-15T14:38:39;98366.22;;;12.65;62.30
40574;BME280;26283;49.020;8.644;2022-11-15T14:41:04;98373.84;;;12.68;62.29
40574;BME280;26283;49.020;8.644;2022-11-15T14:43:30;98365.97;;;12.66;62.28
40574;BME280;26283;49.020;8.644;2022-11-15T14:46:06;98360.31;;;12.68;62.26
40574;BME280;26283;49.020;8.644;2022-11-15T14:48:32;98354.91;;;12.68;62.23
40574;BME280;26283;49.020;8.644;2022-11-15T14:50:57;98352.78;;;12.70;62.19
40574;BME280;26283;49.020;8.644;2022-11-15T14:53:22;98350.06;;;12.70;62.20
40574;BME280;26283;49.020;8.644;2022-11-15T14:55:51;98345.47;;;12.70;62.20
40574;BME280;26283;49.020;8.644;2022-11-15T14:58:16;98343.59;;;12.71;62.19
40574;BME280;26283;49.020;8.644;2022-11-15T15:00:42;98347.13;;;12.72;62.16
40574;BME280;26283;49.020;8.644;2022-11-15T15:03:08;98340.06;;;12.70;62.17
40574;BME280;26283;49.020;8.644;2022-11-15T15:05:37;98337.13;;;12.72;62.18
40574;BME280;26283;49.020;8.644;2022-11-15T15:08:05;98333.34;;;12.73;62.16